Pagrindinis puslapis
METAR-TAF:

METAR-TAF

Oro uostai :

Malė, Maldyvai

platuma: 04-12N, ilguma: 073-32E, Aukštis: 2 m

Dabartinis oras

Ataskaita buvo paskelbta 19 valandos ir 38 minutes, ne 18:00 UTC
Vėjas 12 kt iš Vakarų/Šiaurės Vakarų
Temperatūra 28°C
Drėgmė 79%
Slėgis 1012 hPa
Matomumas 10 km arba daugiau
Mažai debesys ne aukštis 1800 ft, aukštai iškilę kamuoliniai debesys.
Su prošvaistėmis ne aukštis 12000 ft

METAR: VRMM 281800Z 30012KT 9999 FEW018TCU BKN120 28/24 Q1012 TEMPO 5000 -SHRA

Laikas: 18:38 (13:38 UTC)

Prognozė

Ataskaita buvo paskelbta 2 valandos ir 38 minutes, ne 11:00 UTC
Prognozė galioja nuo 29 metu 12 UTC su 30 metu 18 UTC
Vėjas 13 kt iš Vakarų
Matomumas 10 km arba daugiau
Mažai debesys ne aukštis 1800 ft, aukštai iškilę kamuoliniai debesys.
Laikinai
nuo 29 metu 12 UTC su 29 metu 18 UTC
Išsisklaidę debesys ne aukštis 1700 ft, Liūtiniai kamuoliniai debesys.

TAF: VRMM 291100Z 2912/3018 28013KT 9999 FEW018TCU TEMPO 2912/2918 SCT017CB

Orai ataskaitas ir orų prognozės (METAR, TAF).

turimą stotys yra geltonos ir raudonos taškus žemėlapyje.

Perkelti pele per norėdami pamatyti stoties vardą.

Tada spustelėkite, norėdami matyti oro stebėjimo ir prognozės.

Norėdami pakeisti žemėlapį: spustelėkite ant žalios mygtukų su juodo kryžiaus žemyn,; žalią mygtuką su brūkšneliu, jei norite nutolinti; arba žalių rodyklių gretimoms žemėlapius.


METAR-TAF: